createdAt,value
2018-04-15T00:00:58.241Z,23.30
2018-04-15T00:03:26.785Z,25.17
2018-04-15T00:05:55.308Z,25.67
2018-04-15T00:08:23.825Z,27.27
2018-04-15T00:10:52.297Z,29.13
2018-04-15T00:13:20.848Z,29.03
2018-04-15T00:15:49.336Z,27.87
2018-04-15T00:18:17.849Z,27.93
2018-04-15T00:20:46.326Z,28.63
2018-04-15T00:23:14.834Z,27.60
2018-04-15T00:25:43.336Z,27.43
2018-04-15T00:28:11.814Z,29.67
2018-04-15T00:30:40.332Z,27.33
2018-04-15T00:33:08.793Z,26.57
2018-04-15T00:35:37.307Z,26.33
2018-04-15T00:38:05.791Z,27.40
2018-04-15T00:40:34.292Z,26.80
2018-04-15T00:43:02.760Z,28.77
2018-04-15T00:45:31.288Z,26.50
2018-04-15T00:47:59.733Z,27.73
2018-04-15T00:50:28.202Z,26.07
2018-04-15T00:52:56.715Z,25.97
2018-04-15T00:55:25.227Z,25.20
2018-04-15T00:57:53.737Z,26.33
2018-04-15T01:00:22.208Z,26.53
2018-04-15T01:02:50.712Z,26.90
2018-04-15T01:05:19.241Z,29.80
2018-04-15T01:07:47.713Z,24.50
2018-04-15T01:10:19.135Z,23.40
2018-04-15T01:12:47.684Z,24.47
2018-04-15T01:15:16.167Z,26.47
2018-04-15T01:17:44.682Z,23.87
2018-04-15T01:20:13.152Z,24.23
2018-04-15T01:22:41.673Z,24.33
2018-04-15T01:25:10.158Z,22.93
2018-04-15T01:27:38.708Z,22.67
2018-04-15T01:30:07.206Z,24.20
2018-04-15T01:32:35.704Z,25.10
2018-04-15T01:35:04.213Z,25.57
2018-04-15T01:37:32.696Z,26.90
2018-04-15T01:40:01.197Z,26.53
2018-04-15T01:42:29.711Z,29.13
2018-04-15T01:44:58.234Z,27.73
2018-04-15T01:47:26.740Z,29.13
2018-04-15T01:49:55.240Z,32.23
2018-04-15T01:52:23.708Z,32.40
2018-04-15T01:54:52.194Z,32.00
2018-04-15T01:57:20.708Z,31.97
2018-04-15T01:59:49.228Z,31.57
2018-04-15T02:02:17.728Z,33.10
2018-04-15T02:04:46.208Z,35.33
2018-04-15T02:07:14.697Z,35.27
2018-04-15T02:09:43.188Z,38.77
2018-04-15T02:12:11.710Z,36.27
2018-04-15T02:14:40.209Z,40.53
2018-04-15T02:17:08.722Z,36.07
2018-04-15T02:19:37.260Z,37.47
2018-04-15T02:22:05.796Z,38.43
2018-04-15T02:24:34.246Z,39.80
2018-04-15T02:27:02.744Z,40.17
2018-04-15T02:29:31.264Z,38.30
2018-04-15T02:31:59.737Z,41.07
2018-04-15T02:34:28.251Z,40.80
2018-04-15T02:36:56.773Z,42.67
2018-04-15T02:39:25.264Z,38.97
2018-04-15T02:41:53.825Z,40.37
2018-04-15T02:44:22.351Z,40.53
2018-04-15T02:46:50.825Z,46.03
2018-04-15T02:49:19.332Z,40.90
2018-04-15T02:51:47.845Z,40.53
2018-04-15T02:54:16.396Z,43.77
2018-04-15T02:56:44.926Z,45.80
2018-04-15T02:59:13.390Z,42.63
2018-04-15T03:01:41.844Z,45.00
2018-04-15T03:04:10.371Z,44.97
2018-04-15T03:06:38.856Z,44.47
2018-04-15T03:09:07.372Z,43.83
2018-04-15T03:11:35.836Z,44.40
2018-04-15T03:14:04.341Z,43.77
2018-04-15T03:16:32.800Z,44.53
2018-04-15T03:19:01.303Z,43.10
2018-04-15T03:21:29.804Z,47.20
2018-04-15T03:23:58.322Z,42.73
2018-04-15T03:26:26.788Z,45.00
2018-04-15T03:28:55.309Z,43.90
2018-04-15T03:31:23.757Z,40.27
2018-04-15T03:33:52.247Z,30.83
2018-04-15T03:36:20.753Z,30.90
2018-04-15T03:38:49.212Z,28.50
2018-04-15T03:41:17.729Z,33.53
2018-04-15T03:43:46.176Z,28.77
2018-04-15T03:46:14.636Z,30.77
2018-04-15T03:48:43.157Z,30.70
2018-04-15T03:51:11.633Z,38.87
2018-04-15T03:53:40.078Z,28.77
2018-04-15T03:56:08.600Z,34.63
2018-04-15T03:58:37.064Z,35.37
2018-04-15T04:01:05.564Z,33.47
2018-04-15T04:03:34.108Z,27.73
2018-04-15T04:06:02.612Z,29.07
2018-04-15T04:08:31.598Z,26.50
2018-04-15T04:11:00.101Z,27.73
2018-04-15T04:13:28.599Z,26.87
2018-04-15T04:15:57.085Z,27.77
2018-04-15T04:18:37.122Z,29.47
2018-04-15T04:21:18.182Z,31.87
2018-04-15T04:23:58.242Z,35.10
2018-04-15T04:26:26.746Z,33.97
2018-04-15T04:28:55.192Z,35.60
2018-04-15T04:31:23.660Z,32.27
2018-04-15T04:33:52.160Z,31.57
2018-04-15T04:36:20.676Z,33.20
2018-04-15T04:38:49.192Z,36.90
2018-04-15T04:41:17.708Z,34.83
2018-04-15T04:43:46.191Z,35.90
2018-04-15T04:46:14.705Z,35.37
2018-04-15T04:48:43.166Z,34.50
2018-04-15T04:51:11.632Z,39.00
2018-04-15T04:53:40.152Z,37.50
2018-04-15T04:56:08.656Z,44.00
2018-04-15T04:58:37.157Z,39.87
2018-04-15T05:01:05.620Z,41.63
2018-04-15T05:03:34.128Z,41.37
2018-04-15T05:06:02.588Z,41.30
2018-04-15T05:08:31.099Z,44.67
2018-04-15T05:10:59.560Z,45.33
2018-04-15T05:13:28.035Z,44.33
2018-04-15T05:15:56.540Z,48.50
2018-04-15T05:18:25.046Z,39.43
2018-04-15T05:20:53.567Z,44.63
2018-04-15T05:23:22.052Z,42.40
2018-04-15T05:25:50.552Z,43.83
2018-04-15T05:28:19.048Z,42.00
2018-04-15T05:30:47.560Z,41.60
2018-04-15T05:33:16.055Z,39.60
2018-04-15T05:35:44.568Z,46.77
2018-04-15T05:38:13.036Z,54.07
2018-04-15T05:40:41.503Z,51.93
2018-04-15T05:43:10.016Z,52.03
2018-04-15T05:45:38.500Z,54.43
2018-04-15T05:48:06.953Z,50.63
2018-04-15T05:50:35.480Z,46.93
2018-04-15T05:53:03.958Z,44.63
2018-04-15T05:55:32.434Z,54.23
2018-04-15T05:58:00.940Z,62.00
2018-04-15T06:00:29.467Z,62.87
2018-04-15T06:02:57.976Z,59.23
2018-04-15T06:05:26.448Z,50.57
2018-04-15T06:07:54.924Z,54.77
2018-04-15T06:10:23.417Z,48.70
2018-04-15T06:12:51.928Z,48.07
2018-04-15T06:15:20.488Z,50.27
2018-04-15T06:17:49.000Z,48.23
2018-04-15T06:20:17.532Z,45.33
2018-04-15T06:22:46.036Z,45.60
2018-04-15T06:25:14.504Z,42.90
2018-04-15T06:27:43.004Z,45.90
2018-04-15T06:30:11.508Z,41.87
2018-04-15T06:32:39.992Z,49.60
2018-04-15T06:35:08.448Z,44.60
2018-04-15T06:37:36.955Z,46.83
2018-04-15T06:40:05.397Z,44.23
2018-04-15T06:42:33.910Z,41.37
2018-04-15T06:45:02.420Z,43.97
2018-04-15T06:47:30.935Z,42.60
2018-04-15T06:49:59.405Z,45.53
2018-04-15T06:52:27.914Z,41.90
2018-04-15T06:54:56.439Z,36.47
2018-04-15T06:57:24.934Z,46.53
2018-04-15T06:59:53.532Z,41.60
2018-04-15T07:02:22.041Z,38.47
2018-04-15T07:04:50.574Z,38.70
2018-04-15T07:07:19.046Z,40.17
2018-04-15T07:09:47.564Z,48.27
2018-04-15T07:12:16.069Z,39.90
2018-04-15T07:14:44.541Z,33.07
2018-04-15T07:17:13.002Z,38.87
2018-04-15T07:19:41.512Z,48.53
2018-04-15T07:22:09.980Z,44.50
2018-04-15T07:24:38.505Z,44.23
2018-04-15T07:27:07.034Z,45.73
2018-04-15T07:29:35.551Z,44.93
2018-04-15T07:32:04.028Z,40.53
2018-04-15T07:34:32.527Z,40.53
2018-04-15T07:37:00.992Z,38.07
2018-04-15T07:39:29.497Z,39.27
2018-04-15T07:41:57.980Z,38.47
2018-04-15T07:44:26.481Z,44.80
2018-04-15T07:46:54.989Z,38.43
2018-04-15T07:49:23.483Z,35.77
2018-04-15T07:51:51.988Z,37.27
2018-04-15T07:54:20.456Z,36.67
2018-04-15T07:56:48.964Z,40.03
2018-04-15T07:59:17.480Z,35.17
2018-04-15T08:01:45.948Z,37.90
2018-04-15T08:04:14.426Z,37.77
2018-04-15T08:06:42.936Z,37.33
2018-04-15T08:09:11.411Z,41.80
2018-04-15T08:11:39.935Z,36.27
2018-04-15T08:14:08.413Z,34.57
2018-04-15T08:16:36.921Z,36.47
2018-04-15T08:19:05.440Z,31.93
2018-04-15T08:21:33.908Z,37.17
2018-04-15T08:24:02.368Z,80.63
2018-04-15T08:26:30.884Z,35.73
2018-04-15T08:28:59.395Z,35.73
2018-04-15T08:31:27.856Z,33.40
2018-04-15T08:33:56.376Z,35.60
2018-04-15T08:36:24.829Z,35.63
2018-04-15T08:38:53.284Z,36.77
2018-04-15T08:41:21.790Z,31.60
2018-04-15T08:43:50.268Z,34.90
2018-04-15T08:46:18.793Z,33.33
2018-04-15T08:48:47.269Z,34.50
2018-04-15T08:51:15.740Z,30.90
2018-04-15T08:53:44.246Z,30.13
2018-04-15T08:56:12.712Z,27.23
2018-04-15T08:58:41.234Z,29.87
2018-04-15T09:01:09.697Z,27.97
2018-04-15T09:03:38.200Z,30.80
2018-04-15T09:06:06.708Z,30.17
2018-04-15T09:08:35.229Z,29.70
2018-04-15T09:11:03.678Z,31.40
2018-04-15T09:13:32.176Z,26.97
2018-04-15T09:16:00.668Z,27.97
2018-04-15T09:18:29.153Z,26.77
2018-04-15T09:20:57.671Z,29.73
2018-04-15T09:23:26.154Z,25.63
2018-04-15T09:25:54.647Z,29.00
2018-04-15T09:28:23.139Z,29.13
2018-04-15T09:30:57.206Z,29.03
2018-04-15T09:33:25.677Z,27.87
2018-04-15T09:35:54.179Z,29.10
2018-04-15T09:38:22.649Z,29.40
2018-04-15T09:40:51.107Z,28.93
2018-04-15T09:43:19.640Z,29.37
2018-04-15T09:45:48.109Z,29.07
2018-04-15T09:48:16.605Z,29.87
2018-04-15T09:50:45.108Z,27.93
2018-04-15T09:53:13.608Z,30.13
2018-04-15T09:55:42.073Z,29.63
2018-04-15T09:58:10.597Z,28.80
2018-04-15T10:00:39.077Z,28.67
2018-04-15T10:03:07.557Z,27.10
2018-04-15T10:05:36.060Z,28.33
2018-04-15T10:08:04.552Z,29.47
2018-04-15T10:10:33.061Z,30.33
2018-04-15T10:13:01.528Z,26.83
2018-04-15T10:15:30.033Z,32.27
2018-04-15T10:17:58.492Z,28.17
2018-04-15T10:20:27.014Z,27.20
2018-04-15T10:22:55.517Z,28.53
2018-04-15T10:25:24.016Z,28.70
2018-04-15T10:27:52.489Z,31.57
2018-04-15T10:30:21.029Z,28.67
2018-04-15T10:32:49.536Z,27.67
2018-04-15T10:35:18.033Z,27.80
2018-04-15T10:37:46.492Z,30.47
2018-04-15T10:40:14.960Z,30.07
2018-04-15T10:42:43.468Z,28.47
2018-04-15T10:45:11.924Z,30.07
2018-04-15T10:47:40.436Z,31.10
2018-04-15T10:50:08.918Z,30.70
2018-04-15T10:52:37.445Z,28.07
2018-04-15T10:55:05.913Z,28.03
2018-04-15T10:57:34.416Z,28.40
2018-04-15T11:00:02.892Z,27.87
2018-04-15T11:02:31.397Z,32.77
2018-04-15T11:04:59.860Z,32.47
2018-04-15T11:07:28.365Z,33.13
2018-04-15T11:09:56.867Z,28.97
2018-04-15T11:12:25.320Z,26.83
2018-04-15T11:14:53.820Z,31.40
2018-04-15T11:17:22.269Z,31.27
2018-04-15T11:19:50.794Z,27.13
2018-04-15T11:22:19.258Z,27.03
2018-04-15T11:24:47.779Z,27.47
2018-04-15T11:27:16.248Z,27.63
2018-04-15T11:29:44.736Z,27.97
2018-04-15T11:32:13.246Z,27.70
2018-04-15T11:34:41.739Z,29.20
2018-04-15T11:37:10.212Z,31.70
2018-04-15T11:39:38.705Z,31.77
2018-04-15T11:42:07.209Z,28.43
2018-04-15T11:44:35.773Z,31.90
2018-04-15T11:47:04.250Z,29.23
2018-04-15T11:49:32.719Z,32.20
2018-04-15T11:52:01.227Z,30.97
2018-04-15T11:54:29.748Z,28.73
2018-04-15T11:56:58.256Z,27.37
2018-04-15T11:59:26.778Z,25.90
2018-04-15T12:01:55.252Z,29.80
2018-04-15T12:04:23.771Z,28.73
2018-04-15T12:06:52.240Z,30.70
2018-04-15T12:09:20.746Z,29.90
2018-04-15T12:11:49.256Z,32.23
2018-04-15T12:14:17.724Z,29.97
2018-04-15T12:16:46.244Z,27.67
2018-04-15T12:19:14.711Z,29.63
2018-04-15T12:21:43.208Z,27.93
2018-04-15T12:24:11.687Z,28.60
2018-04-15T12:26:40.197Z,29.13
2018-04-15T12:29:08.712Z,26.87
2018-04-15T12:31:37.176Z,30.93
2018-04-15T12:34:05.689Z,27.37
2018-04-15T12:36:34.199Z,28.97
2018-04-15T12:39:02.680Z,28.33
2018-04-15T12:41:31.224Z,32.60
2018-04-15T12:43:59.687Z,28.73
2018-04-15T12:46:28.157Z,29.03
2018-04-15T12:48:56.657Z,32.80
2018-04-15T12:51:25.109Z,31.17
2018-04-15T12:53:53.608Z,30.77
2018-04-15T12:56:22.076Z,27.83
2018-04-15T12:58:50.578Z,29.53
2018-04-15T13:01:19.093Z,28.10
2018-04-15T13:03:47.564Z,28.87
2018-04-15T13:06:16.033Z,29.10
2018-04-15T13:08:44.536Z,30.03
2018-04-15T13:11:13.069Z,27.90
2018-04-15T13:13:41.530Z,27.57
2018-04-15T13:16:10.012Z,25.93
2018-04-15T13:18:38.527Z,27.23
2018-04-15T13:21:07.029Z,26.80
2018-04-15T13:23:35.533Z,26.80
2018-04-15T13:26:04.105Z,28.00
2018-04-15T13:28:32.590Z,31.03
2018-04-15T13:31:01.060Z,27.87
2018-04-15T13:33:29.573Z,27.50
2018-04-15T13:35:58.091Z,26.73
2018-04-15T13:38:26.613Z,26.63
2018-04-15T13:40:55.068Z,27.10
2018-04-15T13:43:23.533Z,27.60
2018-04-15T13:45:52.020Z,37.20
2018-04-15T13:48:20.505Z,38.07
2018-04-15T13:50:49.005Z,45.80
2018-04-15T13:53:17.536Z,41.27
2018-04-15T13:55:46.014Z,47.47
2018-04-15T13:58:14.527Z,43.23
2018-04-15T14:00:43.019Z,46.70
2018-04-15T14:03:11.528Z,43.37
2018-04-15T14:05:40.049Z,43.63
2018-04-15T14:08:08.541Z,45.00
2018-04-15T14:10:37.000Z,45.33
2018-04-15T14:13:05.520Z,42.60
2018-04-15T14:15:34.004Z,49.97
2018-04-15T14:18:02.549Z,45.43
2018-04-15T14:20:31.035Z,41.90
2018-04-15T14:22:59.541Z,44.60
2018-04-15T14:25:28.056Z,45.43
2018-04-15T14:27:56.550Z,44.30
2018-04-15T14:30:25.024Z,53.70
2018-04-15T14:32:53.540Z,48.80
2018-04-15T14:35:22.007Z,47.80
2018-04-15T14:37:50.477Z,45.63
2018-04-15T14:40:18.976Z,44.13
2018-04-15T14:42:47.445Z,43.97
2018-04-15T14:45:15.952Z,45.03
2018-04-15T14:47:44.413Z,46.03
2018-04-15T14:50:12.935Z,45.23
2018-04-15T14:52:41.474Z,44.00
2018-04-15T14:55:09.947Z,47.90
2018-04-15T14:57:38.481Z,55.00
2018-04-15T15:00:07.001Z,51.43
2018-04-15T15:02:35.563Z,52.40
2018-04-15T15:05:04.098Z,50.63
2018-04-15T15:07:32.564Z,52.23
2018-04-15T15:10:01.100Z,52.90
2018-04-15T15:12:29.594Z,49.87
2018-04-15T15:14:58.100Z,47.47
2018-04-15T15:17:26.596Z,47.00
2018-04-15T15:19:55.106Z,48.20
2018-04-15T15:22:23.578Z,47.27
2018-04-15T15:24:52.081Z,47.97
2018-04-15T15:27:20.561Z,49.63
2018-04-15T15:29:49.034Z,49.43
2018-04-15T15:32:17.558Z,53.27
2018-04-15T15:34:46.030Z,50.07
2018-04-15T15:37:14.529Z,53.00
2018-04-15T15:39:42.996Z,52.23
2018-04-15T15:42:11.513Z,50.80
2018-04-15T15:44:39.997Z,57.50
2018-04-15T15:47:08.493Z,52.60
2018-04-15T15:49:37.004Z,51.73
2018-04-15T15:52:05.501Z,52.10
2018-04-15T15:54:33.976Z,57.33
2018-04-15T15:57:02.492Z,52.47
2018-04-15T15:59:30.997Z,53.40
2018-04-15T16:01:59.509Z,54.27
2018-04-15T16:04:27.964Z,56.63
2018-04-15T16:06:56.499Z,52.33
2018-04-15T16:09:25.013Z,52.47
2018-04-15T16:11:53.468Z,54.20
2018-04-15T16:14:21.920Z,53.10
2018-04-15T16:16:50.418Z,59.27
2018-04-15T16:19:18.887Z,52.03
2018-04-15T16:21:47.373Z,54.20
2018-04-15T16:24:15.866Z,57.07
2018-04-15T16:26:44.324Z,51.63
2018-04-15T16:29:12.776Z,55.40
2018-04-15T16:31:41.274Z,54.07
2018-04-15T16:34:09.776Z,51.93
2018-04-15T16:36:38.284Z,56.63
2018-04-15T16:39:06.744Z,54.80
2018-04-15T16:41:35.216Z,60.67
2018-04-15T16:44:03.736Z,59.93
2018-04-15T16:46:32.196Z,57.40
2018-04-15T16:49:00.688Z,60.00
2018-04-15T16:51:29.180Z,60.37
2018-04-15T16:53:57.660Z,59.67
2018-04-15T16:56:26.164Z,56.50
2018-04-15T16:58:54.656Z,52.97
2018-04-15T17:01:23.094Z,53.13
2018-04-15T17:03:51.602Z,52.40
2018-04-15T17:06:20.131Z,55.53
2018-04-15T17:08:48.684Z,62.10
2018-04-15T17:11:17.184Z,59.93
2018-04-15T17:13:45.644Z,57.07
2018-04-15T17:16:14.136Z,56.23
2018-04-15T17:18:42.574Z,57.50
2018-04-15T17:21:11.088Z,53.57
2018-04-15T17:23:39.557Z,52.87
2018-04-15T17:26:08.038Z,57.37
2018-04-15T17:28:36.533Z,57.03
2018-04-15T17:31:05.008Z,50.17
2018-04-15T17:33:33.500Z,59.00
2018-04-15T17:36:01.988Z,53.23
2018-04-15T17:38:30.449Z,54.93
2018-04-15T17:40:58.956Z,58.80
2018-04-15T17:43:27.456Z,58.00
2018-04-15T17:45:55.938Z,52.77
2018-04-15T17:48:24.428Z,55.33
2018-04-15T17:50:52.881Z,54.87
2018-04-15T17:53:21.377Z,57.67
2018-04-15T17:55:49.847Z,65.40
2018-04-15T17:58:18.344Z,59.17
2018-04-15T18:00:46.851Z,60.33
2018-04-15T18:03:15.307Z,60.10
2018-04-15T18:05:43.764Z,56.77
2018-04-15T18:08:12.264Z,57.33
2018-04-15T18:10:40.720Z,57.30
2018-04-15T18:13:09.220Z,59.30
2018-04-15T18:15:37.729Z,88.43
2018-04-15T18:18:06.192Z,67.20
2018-04-15T18:20:34.694Z,59.73
2018-04-15T18:23:03.169Z,59.17
2018-04-15T18:25:31.628Z,52.73
2018-04-15T18:28:00.159Z,51.90
2018-04-15T18:30:28.657Z,57.20
2018-04-15T18:32:57.144Z,50.10
2018-04-15T18:35:25.637Z,53.07
2018-04-15T18:37:54.115Z,52.83
2018-04-15T18:40:22.688Z,54.63
2018-04-15T18:42:51.145Z,51.07
2018-04-15T18:45:19.596Z,50.87
2018-04-15T18:47:48.089Z,50.77
2018-04-15T18:50:16.592Z,51.43
2018-04-15T18:52:45.105Z,51.60
2018-04-15T18:55:13.659Z,54.53
2018-04-15T18:57:42.139Z,48.40
2018-04-15T19:00:10.652Z,53.43
2018-04-15T19:02:39.154Z,53.80
2018-04-15T19:05:07.626Z,54.50
2018-04-15T19:07:36.107Z,56.67
2018-04-15T19:10:04.610Z,51.70
2018-04-15T19:12:33.071Z,54.50
2018-04-15T19:15:01.561Z,59.77
2018-04-15T19:17:30.001Z,55.47
2018-04-15T19:19:58.497Z,56.63
2018-04-15T19:22:26.993Z,59.13
2018-04-15T19:24:55.479Z,52.37
2018-04-15T19:27:23.989Z,57.90
2018-04-15T19:29:52.450Z,57.07
2018-04-15T19:32:20.949Z,60.53
2018-04-15T19:34:49.544Z,52.73
2018-04-15T19:37:18.001Z,57.23
2018-04-15T19:39:46.471Z,62.23
2018-04-15T19:42:14.993Z,58.37
2018-04-15T19:44:43.458Z,52.37
2018-04-15T19:47:11.920Z,60.40
2018-04-15T19:49:40.405Z,60.03
2018-04-15T19:52:08.876Z,59.37
2018-04-15T19:54:37.435Z,55.93
2018-04-15T19:57:05.888Z,59.47
2018-04-15T19:59:34.380Z,58.37
2018-04-15T20:02:02.837Z,58.47
2018-04-15T20:04:31.342Z,57.97
2018-04-15T20:06:59.805Z,57.43
2018-04-15T20:09:28.285Z,54.33
2018-04-15T20:11:56.732Z,61.00
2018-04-15T20:14:25.209Z,57.47
2018-04-15T20:16:53.664Z,58.07
2018-04-15T20:19:22.153Z,61.30
2018-04-15T20:21:50.661Z,62.33
2018-04-15T20:24:19.172Z,54.93
2018-04-15T20:26:47.636Z,56.30
2018-04-15T20:29:16.101Z,62.13
2018-04-15T20:31:44.596Z,56.90
2018-04-15T20:34:13.052Z,57.03
2018-04-15T20:36:41.560Z,62.13
2018-04-15T20:39:10.037Z,62.13
2018-04-15T20:41:38.564Z,60.27
2018-04-15T20:44:07.030Z,62.80
2018-04-15T20:46:35.511Z,59.53
2018-04-15T20:49:04.023Z,61.67
2018-04-15T20:51:32.485Z,66.43
2018-04-15T20:54:00.983Z,64.70
2018-04-15T20:56:29.449Z,60.83
2018-04-15T20:58:57.919Z,60.80
2018-04-15T21:01:26.444Z,65.33
2018-04-15T21:03:54.913Z,61.50
2018-04-15T21:06:23.448Z,64.60
2018-04-15T21:08:51.905Z,67.47
2018-04-15T21:11:20.396Z,70.73
2018-04-15T21:13:48.833Z,63.60
2018-04-15T21:16:17.339Z,65.17
2018-04-15T21:18:45.845Z,67.90
2018-04-15T21:21:14.336Z,67.07
2018-04-15T21:23:42.828Z,69.73
2018-04-15T21:26:11.300Z,70.77
2018-04-15T21:28:39.853Z,68.03
2018-04-15T21:31:08.364Z,67.70
2018-04-15T21:33:36.820Z,64.30
2018-04-15T21:36:05.288Z,68.33
2018-04-15T21:38:33.812Z,63.87
2018-04-15T21:41:02.304Z,62.30
2018-04-15T21:43:31.027Z,65.33
2018-04-15T21:45:59.484Z,64.63
2018-04-15T21:48:28.007Z,65.47
2018-04-15T21:50:56.463Z,67.77
2018-04-15T21:53:24.950Z,61.67
2018-04-15T21:55:53.440Z,64.93
2018-04-15T21:58:21.897Z,65.57
2018-04-15T22:00:50.408Z,59.17
2018-04-15T22:03:18.927Z,63.20
2018-04-15T22:05:47.449Z,64.33
2018-04-15T22:08:15.904Z,61.53
2018-04-15T22:10:44.414Z,64.60
2018-04-15T22:13:12.880Z,64.60
2018-04-15T22:15:41.376Z,64.30
2018-04-15T22:18:09.884Z,68.73
2018-04-15T22:20:38.387Z,57.00
2018-04-15T22:23:06.845Z,64.77
2018-04-15T22:25:35.336Z,63.37
2018-04-15T22:28:03.813Z,58.87
2018-04-15T22:30:32.272Z,40.37
2018-04-15T22:33:00.776Z,44.63
2018-04-15T22:35:29.306Z,41.93
2018-04-15T22:37:57.844Z,45.10
2018-04-15T22:40:26.309Z,44.10
2018-04-15T22:42:54.809Z,37.43
2018-04-15T22:45:23.319Z,37.53
2018-04-15T22:47:57.368Z,29.97
2018-04-15T22:50:31.387Z,33.83
2018-04-15T22:52:59.864Z,25.87
2018-04-15T22:55:28.362Z,21.77
2018-04-15T22:57:56.864Z,21.23
2018-04-15T23:00:25.325Z,18.53
2018-04-15T23:02:53.872Z,18.27
2018-04-15T23:05:22.416Z,17.83
2018-04-15T23:07:50.888Z,15.30
2018-04-15T23:10:19.396Z,17.27
2018-04-15T23:12:47.923Z,12.27
2018-04-15T23:15:16.421Z,14.20
2018-04-15T23:17:44.923Z,13.13
2018-04-15T23:20:13.448Z,11.63
2018-04-15T23:22:41.956Z,13.40
2018-04-15T23:25:10.488Z,12.90
2018-04-15T23:27:38.957Z,13.83
2018-04-15T23:30:07.456Z,14.43
2018-04-15T23:32:35.976Z,12.87
2018-04-15T23:35:04.508Z,14.57
2018-04-15T23:37:32.985Z,13.53
2018-04-15T23:40:01.536Z,12.53
2018-04-15T23:42:30.033Z,12.23
2018-04-15T23:44:58.497Z,15.00
2018-04-15T23:47:27.016Z,12.77
2018-04-15T23:49:55.688Z,15.00
2018-04-15T23:52:24.195Z,14.40
2018-04-15T23:54:52.660Z,14.73
2018-04-15T23:57:21.202Z,15.20
2018-04-15T23:59:49.713Z,15.90
